createdAt,value
2023-03-27T00:00:27.807Z,98117.68
2023-03-27T00:02:58.170Z,98117.38
2023-03-27T00:05:29.587Z,98116.66
2023-03-27T00:07:58.377Z,98116.85
2023-03-27T00:10:26.758Z,98112.48
2023-03-27T00:12:59.134Z,98111.88
2023-03-27T00:15:28.225Z,98110.94
2023-03-27T00:17:59.003Z,98110.73
2023-03-27T00:20:31.357Z,98111.43
2023-03-27T00:23:02.798Z,98111.64
2023-03-27T00:25:31.473Z,98106.28
2023-03-27T00:28:09.387Z,98109.89
2023-03-27T00:30:41.580Z,98109.35
2023-03-27T00:33:11.879Z,98110.90
2023-03-27T00:35:44.962Z,98114.15
2023-03-27T00:38:14.280Z,98111.85
2023-03-27T00:40:46.777Z,98113.41
2023-03-27T00:43:34.147Z,98106.48
2023-03-27T00:46:08.347Z,98107.98
2023-03-27T00:48:37.305Z,98108.23
2023-03-27T00:51:06.196Z,98105.66
2023-03-27T00:53:34.664Z,98111.33
2023-03-27T00:56:04.675Z,98109.83
2023-03-27T00:58:34.497Z,98111.48
2023-03-27T01:01:03.091Z,98108.27
2023-03-27T01:03:32.920Z,98112.81
2023-03-27T01:06:02.401Z,98111.19
2023-03-27T01:08:33.801Z,98112.39
2023-03-27T01:11:08.596Z,98112.19
2023-03-27T01:13:39.830Z,98108.58
2023-03-27T01:16:46.115Z,98105.38
2023-03-27T01:19:29.412Z,98103.15
2023-03-27T01:22:17.056Z,98108.52
2023-03-27T01:25:04.481Z,98107.88
2023-03-27T01:27:58.768Z,98109.31
2023-03-27T01:30:35.238Z,98106.48
2023-03-27T01:33:22.050Z,98108.77
2023-03-27T01:35:59.873Z,98105.66
2023-03-27T01:38:44.923Z,98104.39
2023-03-27T01:41:19.757Z,98107.23
2023-03-27T01:43:58.814Z,98106.14
2023-03-27T01:46:42.036Z,98104.02
2023-03-27T01:49:15.719Z,98101.94
2023-03-27T01:52:05.099Z,98093.61
2023-03-27T01:54:35.455Z,98101.13
2023-03-27T01:57:22.639Z,98098.86
2023-03-27T02:00:19.469Z,98094.13
2023-03-27T02:03:27.190Z,98092.83
2023-03-27T02:06:02.855Z,98097.96
2023-03-27T02:08:42.793Z,98100.75
2023-03-27T02:11:21.935Z,98100.70
2023-03-27T02:13:52.608Z,98101.84
2023-03-27T02:16:26.931Z,98104.45
2023-03-27T02:19:08.421Z,98106.11
2023-03-27T02:21:37.988Z,98106.54
2023-03-27T02:24:06.479Z,98106.78
2023-03-27T02:26:35.455Z,98113.85
2023-03-27T02:29:55.141Z,98115.60
2023-03-27T02:32:32.677Z,98122.77
2023-03-27T02:35:19.035Z,98127.46
2023-03-27T02:38:17.725Z,98123.71
2023-03-27T02:41:16.488Z,98135.69
2023-03-27T02:44:23.609Z,98135.91
2023-03-27T02:47:02.847Z,98134.40
2023-03-27T02:49:46.482Z,98135.83
2023-03-27T02:52:19.575Z,98143.17
2023-03-27T02:55:06.535Z,98143.10
2023-03-27T02:57:40.322Z,98147.23
2023-03-27T03:00:28.110Z,98148.26
2023-03-27T03:03:28.289Z,98154.20
2023-03-27T03:06:11.524Z,98152.94
2023-03-27T03:08:41.410Z,98150.67
2023-03-27T03:11:12.209Z,98148.14
2023-03-27T03:13:50.163Z,98142.95
2023-03-27T03:16:20.486Z,98144.35
2023-03-27T03:18:49.512Z,98141.98
2023-03-27T03:21:17.954Z,98141.20
2023-03-27T03:23:57.520Z,98144.02
2023-03-27T03:26:32.501Z,98141.68
2023-03-27T03:29:02.770Z,98144.33
2023-03-27T03:31:43.611Z,98142.77
2023-03-27T03:34:16.769Z,98143.69
2023-03-27T03:36:49.828Z,98144.08
2023-03-27T03:39:25.266Z,98146.74
2023-03-27T03:41:55.490Z,98146.68
2023-03-27T03:44:23.976Z,98153.89
2023-03-27T03:46:52.861Z,98156.98
2023-03-27T03:49:23.295Z,98152.74
2023-03-27T03:52:04.447Z,98165.85
2023-03-27T03:54:34.182Z,98164.48
2023-03-27T03:57:03.590Z,98167.23
2023-03-27T03:59:34.224Z,98173.00
2023-03-27T04:02:31.329Z,98172.08
2023-03-27T04:05:10.577Z,98174.27
2023-03-27T04:07:40.432Z,98175.06
2023-03-27T04:10:23.556Z,98172.91
2023-03-27T04:12:52.857Z,98168.29
2023-03-27T04:15:30.259Z,98172.10
2023-03-27T04:18:01.715Z,98173.60
2023-03-27T04:20:34.962Z,98174.20
2023-03-27T04:23:05.838Z,98172.36
2023-03-27T04:25:38.319Z,98175.45
2023-03-27T04:28:07.015Z,98169.52
2023-03-27T04:30:39.491Z,98164.64
2023-03-27T04:33:30.586Z,98159.72
2023-03-27T04:36:09.291Z,98173.26
2023-03-27T04:38:48.172Z,98169.27
2023-03-27T04:41:22.677Z,98168.70
2023-03-27T04:43:51.267Z,98166.13
2023-03-27T04:46:19.885Z,98167.86
2023-03-27T04:48:56.842Z,98172.70
2023-03-27T04:54:20.226Z,98172.52
2023-03-27T04:56:50.783Z,98178.75
2023-03-27T04:59:19.241Z,98181.86
2023-03-27T05:01:54.591Z,98185.08
2023-03-27T05:04:43.760Z,98184.07
2023-03-27T05:07:20.225Z,98187.29
2023-03-27T05:09:49.522Z,98186.14
2023-03-27T05:12:18.107Z,98192.61
2023-03-27T05:14:54.272Z,98194.39
2023-03-27T05:17:44.177Z,98193.08
2023-03-27T05:20:19.602Z,98191.66
2023-03-27T05:22:49.642Z,98193.80
2023-03-27T05:25:28.237Z,98188.85
2023-03-27T05:27:57.235Z,98187.92
2023-03-27T05:30:28.875Z,98183.52
2023-03-27T05:33:09.213Z,98178.30
2023-03-27T05:35:47.075Z,98180.77
2023-03-27T05:38:16.460Z,98185.97
2023-03-27T05:40:58.118Z,98184.30
2023-03-27T05:43:27.449Z,98188.14
2023-03-27T05:45:55.772Z,98188.46
2023-03-27T05:48:26.467Z,98192.45
2023-03-27T05:50:59.362Z,98193.27
2023-03-27T05:53:29.047Z,98195.88
2023-03-27T05:56:20.905Z,98192.84
2023-03-27T05:58:59.524Z,98191.91
2023-03-27T06:01:28.331Z,98194.57
2023-03-27T06:03:58.853Z,98193.67
2023-03-27T06:06:34.400Z,98199.02
2023-03-27T06:09:04.011Z,98200.13
2023-03-27T06:11:32.990Z,98200.21
2023-03-27T06:14:01.777Z,98200.27
2023-03-27T06:16:43.181Z,98201.50
2023-03-27T06:19:39.513Z,98194.14
2023-03-27T06:22:09.322Z,98194.98
2023-03-27T06:24:39.546Z,98195.77
2023-03-27T06:27:10.798Z,98193.84
2023-03-27T06:29:40.811Z,98193.99
2023-03-27T06:32:09.909Z,98188.84
2023-03-27T06:34:44.033Z,98193.71
2023-03-27T06:37:34.115Z,98196.36
2023-03-27T06:40:04.768Z,98200.95
2023-03-27T06:42:33.948Z,98205.02
2023-03-27T06:45:23.745Z,98205.15
2023-03-27T06:48:15.360Z,98195.21
2023-03-27T06:50:52.012Z,98196.61
2023-03-27T06:55:55.193Z,98204.20
2023-03-27T06:58:24.779Z,98204.88
2023-03-27T07:00:53.970Z,98203.77
2023-03-27T07:03:23.264Z,98203.60
2023-03-27T07:06:27.386Z,98202.94
2023-03-27T07:09:01.408Z,98199.95
2023-03-27T07:11:32.085Z,98202.36
2023-03-27T07:14:04.408Z,98206.88
2023-03-27T07:16:33.361Z,98202.42
2023-03-27T07:19:10.179Z,98206.17
2023-03-27T07:21:44.090Z,98208.13
2023-03-27T07:24:12.580Z,98211.70
2023-03-27T07:26:41.980Z,98211.55
2023-03-27T07:29:34.392Z,98213.04
2023-03-27T07:32:09.125Z,98211.71
2023-03-27T07:34:45.117Z,98207.30
2023-03-27T07:37:38.269Z,98211.55
2023-03-27T07:40:37.259Z,98213.95
2023-03-27T07:43:46.320Z,98216.31
2023-03-27T07:46:15.049Z,98212.20
2023-03-27T07:48:43.706Z,98211.17
2023-03-27T07:51:17.935Z,98210.79
2023-03-27T07:53:49.474Z,98206.78
2023-03-27T07:56:23.740Z,98197.88
2023-03-27T07:59:07.947Z,98199.27
2023-03-27T08:01:36.635Z,98198.65
2023-03-27T08:04:05.991Z,98196.46
2023-03-27T08:06:35.451Z,98195.06
2023-03-27T08:09:05.997Z,98200.23
2023-03-27T08:11:41.628Z,98196.98
2023-03-27T08:14:10.319Z,98192.94
2023-03-27T08:16:45.067Z,98195.91
2023-03-27T08:19:15.475Z,98192.75
2023-03-27T08:21:47.553Z,98192.91
2023-03-27T08:24:18.490Z,98189.91
2023-03-27T08:27:04.272Z,98181.83
2023-03-27T08:29:33.064Z,98185.90
2023-03-27T08:32:03.498Z,98181.55
2023-03-27T08:34:31.999Z,98183.02
2023-03-27T08:37:00.563Z,98185.08
2023-03-27T08:39:39.082Z,98176.98
2023-03-27T08:42:13.271Z,98172.09
2023-03-27T08:44:42.294Z,98171.92
2023-03-27T08:47:27.201Z,98170.65
2023-03-27T08:50:01.279Z,98170.83
2023-03-27T08:52:37.466Z,98168.98
2023-03-27T08:55:12.582Z,98166.52
2023-03-27T08:57:50.600Z,98167.76
2023-03-27T09:00:25.758Z,98170.11
2023-03-27T09:03:23.284Z,98159.20
2023-03-27T09:05:58.591Z,98159.71
2023-03-27T09:08:32.562Z,98155.83
2023-03-27T09:11:10.250Z,98155.98
2023-03-27T09:13:47.845Z,98149.95
2023-03-27T09:16:18.950Z,98150.92
2023-03-27T09:18:51.261Z,98145.41
2023-03-27T09:21:37.879Z,98149.55
2023-03-27T09:24:27.464Z,98145.34
2023-03-27T09:27:18.648Z,98138.10
2023-03-27T09:30:15.517Z,98138.14
2023-03-27T09:33:03.725Z,98130.63
2023-03-27T09:35:33.403Z,98133.58
2023-03-27T09:38:04.139Z,98125.78
2023-03-27T09:40:48.977Z,98121.77
2023-03-27T09:43:20.850Z,98128.06
2023-03-27T09:45:51.160Z,98124.73
2023-03-27T09:48:36.442Z,98119.77
2023-03-27T09:51:39.960Z,98126.16
2023-03-27T09:54:14.874Z,98118.20
2023-03-27T09:57:02.052Z,98116.90
2023-03-27T09:59:38.573Z,98123.34
2023-03-27T10:02:38.356Z,98123.73
2023-03-27T10:05:16.189Z,98124.84
2023-03-27T10:07:46.235Z,98124.95
2023-03-27T10:10:46.041Z,98117.67
2023-03-27T10:13:44.616Z,98118.42
2023-03-27T10:16:18.087Z,98122.71
2023-03-27T10:18:57.225Z,98128.31
2023-03-27T10:21:39.966Z,98127.08
2023-03-27T10:24:17.970Z,98118.88
2023-03-27T10:27:05.405Z,98112.30
2023-03-27T10:29:36.131Z,98112.21
2023-03-27T10:32:06.294Z,98111.91
2023-03-27T10:34:52.865Z,98115.56
2023-03-27T10:37:41.012Z,98112.27
2023-03-27T10:40:57.280Z,98116.09
2023-03-27T10:43:41.094Z,98108.46
2023-03-27T10:46:12.280Z,98100.41
2023-03-27T10:49:03.011Z,98103.58
2023-03-27T10:51:46.533Z,98104.10
2023-03-27T10:54:28.966Z,98102.48
2023-03-27T10:57:08.737Z,98092.66
2023-03-27T10:59:44.770Z,98096.91
2023-03-27T11:02:47.898Z,98090.39
2023-03-27T11:05:21.155Z,98095.35
2023-03-27T11:08:25.891Z,98090.58
2023-03-27T11:10:55.769Z,98086.39
2023-03-27T11:13:46.453Z,98084.48
2023-03-27T11:16:41.460Z,98085.37
2023-03-27T11:19:36.321Z,98081.22
2023-03-27T11:22:40.435Z,98081.30
2023-03-27T11:25:24.089Z,98079.31
2023-03-27T11:28:01.774Z,98076.58
2023-03-27T11:30:46.970Z,98074.49
2023-03-27T11:33:32.533Z,98072.96
2023-03-27T11:36:07.204Z,98074.38
2023-03-27T11:39:17.225Z,98075.27
2023-03-27T11:41:51.753Z,98070.10
2023-03-27T11:44:21.871Z,98066.07
2023-03-27T11:47:44.151Z,98073.08
2023-03-27T11:50:29.210Z,98062.64
2023-03-27T11:53:17.032Z,98066.13
2023-03-27T11:56:15.735Z,98057.79
2023-03-27T11:59:19.953Z,98055.98
2023-03-27T12:02:16.653Z,98053.99
2023-03-27T12:04:58.084Z,98047.23
2023-03-27T12:07:59.334Z,98040.02
2023-03-27T12:10:33.414Z,98031.55
2023-03-27T12:13:18.868Z,98034.44
2023-03-27T12:16:09.151Z,98031.45
2023-03-27T12:19:27.796Z,98032.55
2023-03-27T12:22:23.549Z,98035.77
2023-03-27T12:25:05.367Z,98039.52
2023-03-27T12:28:04.318Z,98036.27
2023-03-27T12:31:03.211Z,98034.30
2023-03-27T12:33:45.108Z,98029.02
2023-03-27T12:36:16.773Z,98027.05
2023-03-27T12:38:46.076Z,98024.79
2023-03-27T12:41:26.847Z,98021.14
2023-03-27T12:44:20.111Z,98019.57
2023-03-27T12:47:24.337Z,98018.57
2023-03-27T12:50:01.414Z,98013.91
2023-03-27T12:52:38.709Z,98014.77
2023-03-27T12:55:19.486Z,98005.67
2023-03-27T12:58:02.023Z,98004.27
2023-03-27T13:01:00.686Z,98001.75
2023-03-27T13:04:12.590Z,97998.36
2023-03-27T13:07:12.001Z,97992.14
2023-03-27T13:10:12.949Z,97988.09
2023-03-27T13:13:19.933Z,97992.63
2023-03-27T13:16:17.063Z,97981.41
2023-03-27T13:19:06.690Z,97982.77
2023-03-27T13:22:02.497Z,97979.39
2023-03-27T13:24:54.752Z,97976.63
2023-03-27T13:27:52.728Z,97966.07
2023-03-27T13:30:40.656Z,97964.63
2023-03-27T13:33:28.147Z,97963.18
2023-03-27T13:36:00.604Z,97963.24
2023-03-27T13:38:54.564Z,97961.67
2023-03-27T13:41:45.063Z,97961.05
2023-03-27T13:44:45.818Z,97959.18
2023-03-27T13:47:33.951Z,97967.01
2023-03-27T13:50:24.947Z,97964.13
2023-03-27T13:53:16.783Z,97961.71
2023-03-27T13:56:23.458Z,97957.05
2023-03-27T13:59:37.816Z,97952.09
2023-03-27T14:02:42.188Z,97948.30
2023-03-27T14:05:17.796Z,97950.10
2023-03-27T14:07:56.416Z,97945.54
2023-03-27T14:10:48.761Z,97945.63
2023-03-27T14:13:27.484Z,97941.05
2023-03-27T14:16:04.366Z,97938.13
2023-03-27T14:19:04.281Z,97936.30
2023-03-27T14:22:08.814Z,97939.48
2023-03-27T14:24:54.812Z,97935.73
2023-03-27T14:27:34.757Z,97931.38
2023-03-27T14:30:24.047Z,97927.63
2023-03-27T14:33:06.722Z,97924.58
2023-03-27T14:35:38.746Z,97927.81
2023-03-27T14:38:34.871Z,97927.58
2023-03-27T14:41:08.043Z,97923.46
2023-03-27T14:43:49.557Z,97924.52
2023-03-27T14:46:20.186Z,97922.92
2023-03-27T14:48:58.143Z,97918.81
2023-03-27T14:51:42.244Z,97917.11
2023-03-27T14:54:27.069Z,97919.30
2023-03-27T14:57:03.292Z,97912.48
2023-03-27T14:59:39.230Z,97916.49
2023-03-27T15:02:22.336Z,97916.06
2023-03-27T15:05:03.842Z,97913.66
2023-03-27T15:07:36.312Z,97919.29
2023-03-27T15:10:28.138Z,97921.48
2023-03-27T15:13:10.866Z,97919.80
2023-03-27T15:15:44.287Z,97915.48
2023-03-27T15:18:31.235Z,97914.59
2023-03-27T15:21:04.859Z,97912.23
2023-03-27T15:24:10.792Z,97906.46
2023-03-27T15:26:40.861Z,97905.04
2023-03-27T15:29:14.255Z,97904.63
2023-03-27T15:31:47.140Z,97901.80
2023-03-27T15:34:23.617Z,97902.57
2023-03-27T15:36:57.039Z,97901.52
2023-03-27T15:39:26.939Z,97902.27
2023-03-27T15:42:14.357Z,97897.67
2023-03-27T15:44:43.453Z,97897.65
2023-03-27T15:47:26.202Z,97895.39
2023-03-27T15:50:21.174Z,97893.39
2023-03-27T15:52:52.028Z,97895.85
2023-03-27T15:55:39.253Z,97893.11
2023-03-27T15:58:30.563Z,97896.84
2023-03-27T16:01:01.622Z,97894.33
2023-03-27T16:03:31.499Z,97894.56
2023-03-27T16:06:00.594Z,97894.86
2023-03-27T16:08:32.626Z,97894.13
2023-03-27T16:11:01.464Z,97892.64
2023-03-27T16:13:52.173Z,97888.71
2023-03-27T16:16:23.140Z,97891.03
2023-03-27T16:18:52.726Z,97888.95
2023-03-27T16:21:23.361Z,97887.59
2023-03-27T16:23:52.048Z,97886.42
2023-03-27T16:26:40.396Z,97887.59
2023-03-27T16:29:09.851Z,97889.95
2023-03-27T16:31:38.445Z,97887.84
2023-03-27T16:34:12.181Z,97889.13
2023-03-27T16:36:51.751Z,97890.79
2023-03-27T16:39:20.939Z,97891.90
2023-03-27T16:41:49.425Z,97892.95
2023-03-27T16:44:22.409Z,97893.90
2023-03-27T16:46:51.117Z,97894.94
2023-03-27T16:49:19.715Z,97894.88
2023-03-27T16:51:48.368Z,97894.27
2023-03-27T16:54:17.055Z,97895.78
2023-03-27T16:56:45.773Z,97896.30
2023-03-27T16:59:16.277Z,97897.38
2023-03-27T17:01:44.760Z,97890.86
2023-03-27T17:04:13.781Z,97890.03
2023-03-27T17:06:42.543Z,97897.61
2023-03-27T17:11:54.869Z,97895.13
2023-03-27T17:14:23.558Z,97897.70
2023-03-27T17:16:52.082Z,97894.00
2023-03-27T17:19:21.034Z,97903.39
2023-03-27T17:21:51.364Z,97910.50
2023-03-27T17:24:20.061Z,97909.40
2023-03-27T17:26:48.432Z,97916.79
2023-03-27T17:29:20.808Z,97918.89
2023-03-27T17:31:49.424Z,97923.11
2023-03-27T17:34:19.820Z,97916.90
2023-03-27T17:36:54.294Z,97922.84
2023-03-27T17:39:25.286Z,97928.54
2023-03-27T17:41:54.187Z,97934.72
2023-03-27T17:44:27.680Z,97921.89
2023-03-27T17:46:56.401Z,97916.17
2023-03-27T17:49:25.259Z,97917.70
2023-03-27T17:51:53.642Z,97917.32
2023-03-27T17:54:22.533Z,97917.13
2023-03-27T17:56:52.470Z,97914.11
2023-03-27T17:59:21.210Z,97914.92
2023-03-27T18:01:51.001Z,97913.29
2023-03-27T18:04:20.154Z,97913.29
2023-03-27T18:06:48.633Z,97913.23
2023-03-27T18:09:17.015Z,97912.45
2023-03-27T18:11:47.555Z,97911.24
2023-03-27T18:14:18.286Z,97912.35
2023-03-27T18:16:47.577Z,97913.20
2023-03-27T18:19:16.681Z,97913.73
2023-03-27T18:21:45.576Z,97912.70
2023-03-27T18:24:14.266Z,97910.98
2023-03-27T18:26:43.265Z,97915.61
2023-03-27T18:29:18.400Z,97912.56
2023-03-27T18:31:47.460Z,97909.06
2023-03-27T18:34:15.907Z,97911.02
2023-03-27T18:36:51.011Z,97912.60
2023-03-27T18:39:19.700Z,97911.44
2023-03-27T18:41:47.959Z,97910.41
2023-03-27T18:44:17.076Z,97911.78
2023-03-27T18:46:45.456Z,97906.80
2023-03-27T18:49:24.360Z,97909.18
2023-03-27T18:51:54.099Z,97908.77
2023-03-27T18:54:23.604Z,97907.67
2023-03-27T18:56:52.427Z,97904.45
2023-03-27T18:59:21.080Z,97896.11
2023-03-27T19:01:50.235Z,97883.04
2023-03-27T19:04:19.892Z,97873.08
2023-03-27T19:06:48.278Z,97857.65
2023-03-27T19:09:16.759Z,97857.83
2023-03-27T19:11:45.237Z,97850.77
2023-03-27T19:14:52.225Z,97851.73
2023-03-27T19:17:47.859Z,97851.41
2023-03-27T19:20:35.916Z,97848.91
2023-03-27T19:23:17.785Z,97848.36
2023-03-27T19:25:51.939Z,97844.80
2023-03-27T19:28:21.722Z,97842.91
2023-03-27T19:30:53.082Z,97841.56
2023-03-27T19:33:22.164Z,97842.31
2023-03-27T19:35:53.964Z,97838.00
2023-03-27T19:38:22.459Z,97841.52
2023-03-27T19:40:51.011Z,97838.30
2023-03-27T19:43:21.733Z,97840.52
2023-03-27T19:46:14.263Z,97839.94
2023-03-27T19:48:45.842Z,97842.85
2023-03-27T19:51:23.552Z,97842.81
2023-03-27T19:53:53.754Z,97842.70
2023-03-27T19:56:24.287Z,97842.71
2023-03-27T19:58:53.177Z,97842.29
2023-03-27T20:01:22.960Z,97840.39
2023-03-27T20:03:51.700Z,97829.45
2023-03-27T20:06:22.207Z,97835.77
2023-03-27T20:08:53.762Z,97839.20
2023-03-27T20:11:23.270Z,97841.70
2023-03-27T20:13:56.661Z,97834.11
2023-03-27T20:16:27.727Z,97833.58
2023-03-27T20:19:05.720Z,97825.73
2023-03-27T20:21:39.681Z,97823.05
2023-03-27T20:24:11.665Z,97822.77
2023-03-27T20:26:42.267Z,97818.20
2023-03-27T20:29:18.425Z,97822.75
2023-03-27T20:31:48.438Z,97823.78
2023-03-27T20:34:20.071Z,97819.77
2023-03-27T20:36:53.364Z,97821.94
2023-03-27T20:39:48.370Z,97819.88
2023-03-27T20:42:19.003Z,97816.80
2023-03-27T20:44:55.375Z,97815.41
2023-03-27T20:47:24.598Z,97810.28
2023-03-27T20:49:53.060Z,97809.46
2023-03-27T20:52:23.041Z,97807.14
2023-03-27T20:54:51.976Z,97804.90
2023-03-27T20:57:23.020Z,97799.33
2023-03-27T20:59:53.136Z,97795.85
2023-03-27T21:02:23.205Z,97791.91
2023-03-27T21:04:51.839Z,97786.44
2023-03-27T21:07:20.834Z,97780.64
2023-03-27T21:09:54.030Z,97782.90
2023-03-27T21:12:22.511Z,97785.41
2023-03-27T21:14:51.095Z,97783.79
2023-03-27T21:17:19.991Z,97781.70
2023-03-27T21:19:48.679Z,97785.52
2023-03-27T21:22:23.937Z,97782.82
2023-03-27T21:24:52.709Z,97782.37
2023-03-27T21:27:21.602Z,97780.21
2023-03-27T21:29:56.541Z,97776.41
2023-03-27T21:32:26.156Z,97775.26
2023-03-27T21:34:54.630Z,97772.27
2023-03-27T21:37:23.113Z,97767.25
2023-03-27T21:39:51.497Z,97763.94
2023-03-27T21:42:22.033Z,97764.33
2023-03-27T21:44:55.648Z,97763.52
2023-03-27T21:47:37.241Z,97753.88
2023-03-27T21:50:13.587Z,97766.64
2023-03-27T21:52:42.276Z,97762.57
2023-03-27T21:55:11.892Z,97767.61
2023-03-27T21:57:41.400Z,97763.45
2023-03-27T22:00:10.597Z,97769.67
2023-03-27T22:02:44.689Z,97771.41
2023-03-27T22:05:13.399Z,97769.02
2023-03-27T22:07:47.101Z,97767.65
2023-03-27T22:10:16.100Z,97765.48
2023-03-27T22:12:44.985Z,97765.38
2023-03-27T22:15:14.704Z,97767.23
2023-03-27T22:17:43.726Z,97766.00
2023-03-27T22:20:12.282Z,97771.35
2023-03-27T22:22:41.073Z,97767.63
2023-03-27T22:25:10.275Z,97768.62
2023-03-27T22:27:39.798Z,97767.01
2023-03-27T22:30:14.626Z,97766.55
2023-03-27T22:32:44.117Z,97765.25
2023-03-27T22:35:17.736Z,97764.11
2023-03-27T22:37:46.732Z,97768.69
2023-03-27T22:40:15.201Z,97768.34
2023-03-27T22:42:44.501Z,97763.36
2023-03-27T22:45:13.704Z,97764.30
2023-03-27T22:47:45.423Z,97759.66
2023-03-27T22:50:16.201Z,97755.02
2023-03-27T22:52:44.682Z,97742.52
2023-03-27T22:55:13.269Z,97748.70
2023-03-27T22:57:41.854Z,97748.05
2023-03-27T23:00:16.601Z,97739.49
2023-03-27T23:02:47.232Z,97731.80
2023-03-27T23:05:15.905Z,97721.40
2023-03-27T23:07:45.719Z,97723.66
2023-03-27T23:10:14.819Z,97716.98
2023-03-27T23:12:43.301Z,97709.73
2023-03-27T23:15:12.199Z,97707.39
2023-03-27T23:17:41.161Z,97705.98
2023-03-27T23:20:13.370Z,97708.51
2023-03-27T23:22:42.357Z,97715.60
2023-03-27T23:25:11.357Z,97722.85
2023-03-27T23:27:41.779Z,97716.65
2023-03-27T23:30:11.439Z,97717.17
2023-03-27T23:32:41.321Z,97715.80
2023-03-27T23:35:11.427Z,97718.35
2023-03-27T23:37:39.911Z,97712.38
2023-03-27T23:40:09.457Z,97714.50
2023-03-27T23:42:38.414Z,97709.88
2023-03-27T23:45:12.069Z,97707.78
2023-03-27T23:47:42.467Z,97709.24
2023-03-27T23:50:11.140Z,97710.13
2023-03-27T23:52:41.458Z,97712.55
2023-03-27T23:55:09.853Z,97705.61
2023-03-27T23:57:38.837Z,97704.77
